Time;durP1;ratioP1;P1;durP2;ratioP2;P2;SDS_P1;SDS_P2;PMS_P1;PMS_P2;Temp;Humidity;BMP_temperature;BMP_pressure;BME280_temperature;BME280_humidity;BME280_pressure;Samples;Min_cycle;Max_cycle;Signal;HPM_P1;HPM_P2
2023/01/20 00:00:08;;;;;;;2.50;1.88;;;;;;;;;;5054218;28;20028;-73
2023/01/20 00:02:34;;;;;;;2.58;1.90;;;;;;;;;;5057974;28;20032;-73
2023/01/20 00:05:00;;;;;;;2.55;1.80;;;;;;;;;;5061422;28;20064;-74
2023/01/20 00:07:26;;;;;;;3.55;1.92;;;;;;;;;;5055322;28;20495;-72
2023/01/20 00:09:52;;;;;;;1.83;1.50;;;;;;;;;;5052953;28;20505;-74
2023/01/20 00:12:18;;;;;;;2.67;1.80;;;;;;;;;;5048828;28;20083;-74
2023/01/20 00:14:44;;;;;;;2.67;1.58;;;;;;;;;;5052605;28;20037;-75
2023/01/20 00:17:10;;;;;;;2.78;1.80;;;;;;;;;;5055268;28;20036;-74
2023/01/20 00:19:35;;;;;;;3.13;2.05;;;;;;;;;;5057499;28;20294;-74
2023/01/20 00:22:01;;;;;;;2.47;1.73;;;;;;;;;;5057482;28;20032;-74
2023/01/20 00:24:27;;;;;;;2.60;1.88;;;;;;;;;;5050292;28;20048;-74
2023/01/20 00:26:53;;;;;;;3.15;1.88;;;;;;;;;;5067877;28;20108;-74
2023/01/20 00:29:19;;;;;;;2.40;1.65;;;;;;;;;;5055716;28;20443;-73
2023/01/20 00:31:45;;;;;;;3.83;1.83;;;;;;;;;;5055411;28;20366;-74
2023/01/20 00:34:11;;;;;;;1.60;1.50;;;;;;;;;;5051338;28;20451;-74
2023/01/20 00:36:37;;;;;;;3.13;1.63;;;;;;;;;;5049814;28;20025;-73
2023/01/20 00:39:04;;;;;;;2.90;1.55;;;;;;;;;;5055621;28;20392;-72
2023/01/20 00:41:30;;;;;;;2.22;1.70;;;;;;;;;;5058114;28;20059;-73
2023/01/20 00:43:56;;;;;;;2.17;1.60;;;;;;;;;;5060605;28;20021;-74
2023/01/20 00:46:22;;;;;;;3.45;1.80;;;;;;;;;;5047000;28;20503;-73
2023/01/20 00:48:48;;;;;;;2.45;1.73;;;;;;;;;;5050118;28;20164;-73
2023/01/20 00:51:15;;;;;;;1.92;1.38;;;;;;;;;;5056978;28;20037;-73
2023/01/20 00:53:41;;;;;;;4.47;1.65;;;;;;;;;;5061401;28;20033;-73
2023/01/20 00:56:07;;;;;;;1.88;1.42;;;;;;;;;;5059196;28;20473;-73
2023/01/20 00:58:33;;;;;;;1.80;1.50;;;;;;;;;;5046915;28;20512;-73
2023/01/20 01:00:59;;;;;;;1.90;1.40;;;;;;;;;;5057422;28;20029;-74
2023/01/20 01:03:26;;;;;;;3.10;1.70;;;;;;;;;;5047054;28;20029;-74
2023/01/20 01:05:52;;;;;;;2.08;1.45;;;;;;;;;;5058939;28;20071;-74
2023/01/20 01:08:18;;;;;;;1.73;1.50;;;;;;;;;;5062907;28;20485;-74
2023/01/20 01:10:44;;;;;;;1.77;1.48;;;;;;;;;;5051140;28;20033;-75
2023/01/20 01:13:10;;;;;;;2.25;1.40;;;;;;;;;;5057803;28;20044;-74
2023/01/20 01:15:36;;;;;;;3.13;1.83;;;;;;;;;;5057867;28;20048;-74
2023/01/20 01:18:03;;;;;;;2.58;1.50;;;;;;;;;;5048527;28;20072;-75
2023/01/20 01:20:29;;;;;;;2.28;1.42;;;;;;;;;;5055804;28;20108;-74
2023/01/20 01:22:55;;;;;;;2.40;1.73;;;;;;;;;;5063455;28;20036;-75
2023/01/20 01:25:21;;;;;;;1.95;1.60;;;;;;;;;;5061082;28;20540;-74
2023/01/20 01:27:47;;;;;;;2.55;1.63;;;;;;;;;;5051827;28;20059;-74
2023/01/20 01:30:13;;;;;;;2.88;1.60;;;;;;;;;;5047744;28;20028;-75
2023/01/20 01:32:39;;;;;;;2.65;1.75;;;;;;;;;;5055231;28;20574;-74
2023/01/20 01:35:05;;;;;;;1.92;1.27;;;;;;;;;;5062828;28;20251;-74
2023/01/20 01:37:31;;;;;;;2.00;1.30;;;;;;;;;;5057062;28;20550;-74
2023/01/20 01:39:57;;;;;;;3.15;1.50;;;;;;;;;;5045907;28;20017;-74
2023/01/20 01:42:24;;;;;;;2.50;1.40;;;;;;;;;;5058282;28;20500;-74
2023/01/20 01:45:08;;;;;;;2.20;1.55;;;;;;;;;;5051479;28;20033;-74
2023/01/20 01:47:34;;;;;;;2.00;1.35;;;;;;;;;;5047310;28;20082;-74
2023/01/20 01:50:00;;;;;;;2.80;1.25;;;;;;;;;;5062028;28;20469;-74
2023/01/20 01:52:26;;;;;;;1.67;1.30;;;;;;;;;;5048914;28;20496;-74
2023/01/20 01:54:53;;;;;;;2.00;1.55;;;;;;;;;;5060216;28;20025;-75
2023/01/20 01:57:19;;;;;;;3.63;1.50;;;;;;;;;;5044004;28;20025;-74
2023/01/20 01:59:45;;;;;;;1.70;1.33;;;;;;;;;;5047114;28;20033;-74
2023/01/20 02:02:11;;;;;;;1.92;1.27;;;;;;;;;;5058257;28;20043;-74
2023/01/20 02:04:37;;;;;;;3.75;1.55;;;;;;;;;;5047084;28;20035;-75
2023/01/20 02:07:17;;;;;;;2.53;1.40;;;;;;;;;;5060762;28;20056;-74
2023/01/20 02:09:42;;;;;;;1.35;1.17;;;;;;;;;;5059896;28;20031;-74
2023/01/20 02:12:11;;;;;;;2.97;1.50;;;;;;;;;;5049276;28;20033;-75
2023/01/20 02:14:40;;;;;;;2.17;1.40;;;;;;;;;;5049260;28;20286;-74
2023/01/20 02:17:24;;;;;;;1.48;1.13;;;;;;;;;;5057258;28;20486;-75
2023/01/20 02:20:08;;;;;;;2.35;1.20;;;;;;;;;;5050520;28;20128;-74
2023/01/20 02:22:53;;;;;;;2.58;1.40;;;;;;;;;;5055080;28;20039;-74
2023/01/20 02:25:44;;;;;;;3.40;1.60;;;;;;;;;;5041061;28;20032;-74
2023/01/20 02:28:28;;;;;;;1.30;1.20;;;;;;;;;;5054396;28;20488;-74
2023/01/20 02:30:56;;;;;;;2.25;1.23;;;;;;;;;;5052226;28;20076;-74
2023/01/20 02:33:28;;;;;;;2.00;1.20;;;;;;;;;;5054207;28;20107;-74
2023/01/20 02:36:09;;;;;;;2.28;1.50;;;;;;;;;;5058048;28;20078;-74
2023/01/20 02:38:53;;;;;;;2.97;1.50;;;;;;;;;;5047670;28;20566;-75
2023/01/20 02:41:25;;;;;;;1.63;1.20;;;;;;;;;;5065162;28;20047;-73
2023/01/20 02:43:56;;;;;;;1.38;1.10;;;;;;;;;;5051908;28;20540;-75
2023/01/20 02:46:30;;;;;;;2.10;1.30;;;;;;;;;;5047959;28;20029;-74
2023/01/20 02:49:08;;;;;;;1.90;1.33;;;;;;;;;;5042790;28;20035;-74
2023/01/20 02:51:41;;;;;;;1.55;1.10;;;;;;;;;;5041069;28;20017;-74
2023/01/20 02:54:09;;;;;;;4.72;1.10;;;;;;;;;;5046649;28;20021;-74
2023/01/20 02:56:36;;;;;;;2.65;1.40;;;;;;;;;;5062512;28;20025;-74
2023/01/20 02:59:05;;;;;;;2.72;1.30;;;;;;;;;;5050257;28;20033;-74
2023/01/20 03:01:34;;;;;;;2.97;1.50;;;;;;;;;;5042371;28;20033;-74
2023/01/20 03:04:01;;;;;;;1.48;1.20;;;;;;;;;;5053287;28;20025;-74
2023/01/20 03:06:29;;;;;;;1.27;1.10;;;;;;;;;;5042989;28;20029;-74
2023/01/20 03:08:57;;;;;;;1.75;1.30;;;;;;;;;;5058678;28;20035;-74
2023/01/20 03:11:23;;;;;;;1.75;1.10;;;;;;;;;;5049821;28;20033;-74
2023/01/20 03:14:04;;;;;;;1.52;1.27;;;;;;;;;;5041215;28;20387;-73
2023/01/20 03:16:30;;;;;;;1.80;1.27;;;;;;;;;;5048727;28;20472;-74
2023/01/20 03:18:56;;;;;;;2.75;1.27;;;;;;;;;;5056389;28;20737;-74
2023/01/20 03:21:22;;;;;;;2.17;1.38;;;;;;;;;;5051708;28;20033;-74
2023/01/20 03:23:51;;;;;;;2.00;1.20;;;;;;;;;;5059414;28;20058;-74
2023/01/20 03:26:18;;;;;;;1.33;0.77;;;;;;;;;;5052195;28;20031;-75
2023/01/20 03:28:45;;;;;;;1.60;1.30;;;;;;;;;;5055477;28;20025;-75
2023/01/20 03:31:19;;;;;;;1.15;0.95;;;;;;;;;;5045732;28;20037;-74
2023/01/20 03:33:46;;;;;;;1.88;1.25;;;;;;;;;;5054541;28;20127;-74
2023/01/20 03:36:14;;;;;;;2.15;1.48;;;;;;;;;;5059466;28;20033;-74
2023/01/20 03:38:40;;;;;;;3.88;1.20;;;;;;;;;;5050729;28;20099;-73
2023/01/20 03:41:17;;;;;;;1.85;1.10;;;;;;;;;;5048370;28;20456;-74
2023/01/20 03:43:45;;;;;;;1.52;1.15;;;;;;;;;;5051093;28;20067;-74
2023/01/20 03:46:17;;;;;;;1.25;1.15;;;;;;;;;;5054357;28;20078;-74
2023/01/20 03:48:49;;;;;;;1.60;1.48;;;;;;;;;;5051006;28;20091;-74
2023/01/20 03:51:38;;;;;;;4.32;1.65;;;;;;;;;;5047409;28;20391;-73
2023/01/20 03:54:07;;;;;;;2.15;0.90;;;;;;;;;;5062601;28;20036;-74
2023/01/20 03:56:43;;;;;;;1.45;1.10;;;;;;;;;;5048365;28;20389;-74
2023/01/20 03:59:10;;;;;;;2.58;1.40;;;;;;;;;;5048889;28;20029;-74
2023/01/20 04:01:38;;;;;;;2.50;1.42;;;;;;;;;;5059800;28;20036;-74
2023/01/20 04:04:08;;;;;;;4.70;1.40;;;;;;;;;;5057460;28;20032;-74
2023/01/20 04:06:34;;;;;;;2.58;1.30;;;;;;;;;;5060532;28;20028;-74
2023/01/20 04:09:16;;;;;;;1.30;1.05;;;;;;;;;;5056198;28;20412;-74
2023/01/20 04:11:42;;;;;;;4.90;1.10;;;;;;;;;;5040420;28;20132;-73
2023/01/20 04:14:09;;;;;;;2.78;1.20;;;;;;;;;;5052962;28;20029;-74
2023/01/20 04:16:35;;;;;;;1.77;1.15;;;;;;;;;;5055524;28;20062;-73
2023/01/20 04:19:01;;;;;;;1.65;1.40;;;;;;;;;;5062853;28;20021;-73
2023/01/20 04:21:35;;;;;;;1.73;1.35;;;;;;;;;;5045131;28;20021;-74
2023/01/20 04:24:07;;;;;;;1.38;1.20;;;;;;;;;;5055672;28;20028;-75
2023/01/20 04:26:33;;;;;;;1.75;1.30;;;;;;;;;;5063299;28;20067;-74
2023/01/20 04:29:07;;;;;;;1.65;1.15;;;;;;;;;;5052705;28;20029;-74
2023/01/20 04:31:32;;;;;;;1.10;1.00;;;;;;;;;;5055524;28;20017;-74
2023/01/20 04:33:58;;;;;;;2.22;1.30;;;;;;;;;;5045145;28;20052;-74
2023/01/20 04:36:24;;;;;;;1.30;1.17;;;;;;;;;;5045732;28;20021;-73
2023/01/20 04:38:50;;;;;;;1.55;1.33;;;;;;;;;;5057654;28;20032;-73
2023/01/20 04:41:16;;;;;;;2.03;1.48;;;;;;;;;;5045526;28;20036;-73
2023/01/20 04:43:44;;;;;;;1.95;1.10;;;;;;;;;;5052765;28;20040;-74
2023/01/20 04:46:10;;;;;;;1.77;1.20;;;;;;;;;;5045034;28;20017;-74
2023/01/20 04:48:36;;;;;;;3.60;1.70;;;;;;;;;;5050474;28;20024;-74
2023/01/20 04:51:06;;;;;;;1.38;1.00;;;;;;;;;;5047026;28;20025;-73
2023/01/20 04:53:32;;;;;;;1.92;1.30;;;;;;;;;;5050315;28;20040;-74
2023/01/20 04:55:58;;;;;;;1.67;1.20;;;;;;;;;;5051999;28;20029;-74
2023/01/20 04:58:24;;;;;;;1.50;1.10;;;;;;;;;;5043831;28;20025;-74
2023/01/20 05:00:50;;;;;;;2.22;1.13;;;;;;;;;;5045710;28;20025;-74
2023/01/20 05:03:16;;;;;;;1.42;1.17;;;;;;;;;;5048269;28;20044;-73
2023/01/20 05:05:41;;;;;;;1.48;1.13;;;;;;;;;;5047486;28;20718;-74
2023/01/20 05:08:07;;;;;;;1.20;1.10;;;;;;;;;;5047022;28;20086;-75
2023/01/20 05:10:34;;;;;;;1.35;1.20;;;;;;;;;;5049344;28;20013;-74
2023/01/20 05:13:00;;;;;;;2.72;1.40;;;;;;;;;;5050076;28;20513;-74
2023/01/20 05:15:27;;;;;;;2.22;1.38;;;;;;;;;;5053524;28;20045;-74
2023/01/20 05:17:53;;;;;;;1.92;1.30;;;;;;;;;;5054684;28;20033;-73
2023/01/20 05:20:19;;;;;;;2.42;1.60;;;;;;;;;;5049657;28;20025;-74
2023/01/20 05:22:45;;;;;;;1.75;1.13;;;;;;;;;;5056942;28;20429;-74
2023/01/20 05:25:11;;;;;;;3.00;1.48;;;;;;;;;;5047925;28;20424;-74
2023/01/20 05:27:37;;;;;;;1.80;1.30;;;;;;;;;;5049886;28;20029;-74
2023/01/20 05:30:04;;;;;;;4.53;1.20;;;;;;;;;;5057938;28;20035;-73
2023/01/20 05:32:30;;;;;;;2.25;1.42;;;;;;;;;;5047723;28;20074;-73
2023/01/20 05:34:56;;;;;;;1.70;1.45;;;;;;;;;;5046665;28;20186;-74
2023/01/20 05:37:22;;;;;;;3.30;1.80;;;;;;;;;;5056062;28;20036;-74
2023/01/20 05:39:48;;;;;;;1.50;1.20;;;;;;;;;;5044690;28;20049;-72
2023/01/20 05:42:21;;;;;;;2.10;1.27;;;;;;;;;;5051462;28;20048;-72
2023/01/20 05:44:47;;;;;;;1.52;1.38;;;;;;;;;;5056144;28;20385;-72
2023/01/20 05:47:13;;;;;;;2.88;1.30;;;;;;;;;;5056331;28;20032;-72
2023/01/20 05:49:39;;;;;;;1.98;1.65;;;;;;;;;;5047150;28;20029;-73
2023/01/20 05:52:05;;;;;;;1.40;1.30;;;;;;;;;;5048398;28;20040;-73
2023/01/20 05:54:31;;;;;;;1.45;1.35;;;;;;;;;;5047311;28;20481;-73
2023/01/20 05:56:58;;;;;;;3.28;1.42;;;;;;;;;;5053281;28;20024;-73
2023/01/20 05:59:24;;;;;;;1.15;1.05;;;;;;;;;;5066334;28;20039;-73
2023/01/20 06:01:50;;;;;;;1.85;1.20;;;;;;;;;;5063956;28;20040;-73
2023/01/20 06:04:16;;;;;;;3.50;1.50;;;;;;;;;;5048552;28;20071;-74
2023/01/20 06:06:42;;;;;;;2.47;1.67;;;;;;;;;;5047086;28;20017;-74
2023/01/20 06:09:09;;;;;;;2.53;1.27;;;;;;;;;;5050911;28;20107;-72
2023/01/20 06:11:35;;;;;;;1.48;1.38;;;;;;;;;;5059727;28;20068;-72
2023/01/20 06:14:01;;;;;;;2.58;1.52;;;;;;;;;;5050953;28;20036;-73
2023/01/20 06:16:28;;;;;;;1.65;1.35;;;;;;;;;;5055351;28;20021;-73
2023/01/20 06:18:54;;;;;;;2.13;1.30;;;;;;;;;;5056294;28;20082;-72
2023/01/20 06:21:20;;;;;;;1.92;1.40;;;;;;;;;;5055681;28;20025;-72
2023/01/20 06:23:46;;;;;;;3.10;1.60;;;;;;;;;;5053647;28;20122;-72
2023/01/20 06:26:13;;;;;;;2.45;1.98;;;;;;;;;;5049700;28;20238;-73
2023/01/20 06:28:39;;;;;;;2.00;1.50;;;;;;;;;;5061037;28;20058;-72
2023/01/20 06:31:07;;;;;;;2.53;1.25;;;;;;;;;;5046861;28;20029;-74
2023/01/20 06:33:34;;;;;;;1.55;1.30;;;;;;;;;;5051374;28;20029;-72
2023/01/20 06:36:00;;;;;;;2.00;1.20;;;;;;;;;;5052078;28;20035;-72
2023/01/20 06:38:30;;;;;;;2.40;1.63;;;;;;;;;;5058877;28;20029;-73
2023/01/20 06:40:57;;;;;;;1.48;1.10;;;;;;;;;;5060357;28;20213;-73
2023/01/20 06:43:23;;;;;;;1.80;1.30;;;;;;;;;;5049303;28;20079;-73
2023/01/20 06:45:49;;;;;;;3.70;1.67;;;;;;;;;;5047643;28;20403;-72
2023/01/20 06:48:15;;;;;;;2.65;1.52;;;;;;;;;;5062996;28;20025;-72
2023/01/20 06:50:41;;;;;;;2.83;1.60;;;;;;;;;;5054653;28;20542;-73
2023/01/20 06:53:08;;;;;;;2.63;1.45;;;;;;;;;;5065892;28;20556;-72
2023/01/20 06:55:34;;;;;;;3.47;1.58;;;;;;;;;;5062422;28;20036;-72
2023/01/20 06:58:00;;;;;;;2.33;1.42;;;;;;;;;;5050346;28;20033;-73
2023/01/20 07:00:26;;;;;;;2.25;1.17;;;;;;;;;;5064699;28;20031;-73
2023/01/20 07:02:52;;;;;;;2.17;1.50;;;;;;;;;;5054853;28;20397;-72
2023/01/20 07:05:18;;;;;;;2.00;1.45;;;;;;;;;;5060210;28;20055;-73
2023/01/20 07:07:45;;;;;;;4.53;1.58;;;;;;;;;;5063881;28;20036;-74
2023/01/20 07:10:11;;;;;;;4.20;1.25;;;;;;;;;;5064616;28;20032;-73
2023/01/20 07:12:37;;;;;;;8.73;1.60;;;;;;;;;;5061768;28;20525;-74
2023/01/20 07:15:03;;;;;;;2.38;1.27;;;;;;;;;;5058833;28;20028;-76
2023/01/20 07:17:29;;;;;;;3.40;1.80;;;;;;;;;;5051977;28;20456;-74
2023/01/20 07:19:55;;;;;;;1.98;1.50;;;;;;;;;;5052265;28;20120;-75
2023/01/20 07:22:21;;;;;;;1.58;1.30;;;;;;;;;;5049719;28;20460;-74
2023/01/20 07:24:47;;;;;;;3.28;1.50;;;;;;;;;;5048863;28;20025;-75
2023/01/20 07:27:13;;;;;;;2.17;1.40;;;;;;;;;;5055987;28;20240;-75
2023/01/20 07:29:39;;;;;;;1.67;1.30;;;;;;;;;;5065876;28;20384;-74
2023/01/20 07:32:05;;;;;;;2.08;1.52;;;;;;;;;;5063295;28;20029;-74
2023/01/20 07:34:32;;;;;;;2.85;1.50;;;;;;;;;;5045790;28;20025;-74
2023/01/20 07:37:00;;;;;;;2.67;1.55;;;;;;;;;;5060402;28;20017;-74
2023/01/20 07:39:26;;;;;;;2.70;1.63;;;;;;;;;;5063124;28;20245;-74
2023/01/20 07:41:52;;;;;;;1.45;1.25;;;;;;;;;;5065795;28;20155;-75
2023/01/20 07:44:18;;;;;;;1.98;1.40;;;;;;;;;;5065526;28;20571;-75
2023/01/20 07:46:44;;;;;;;1.75;1.52;;;;;;;;;;5065834;28;20468;-75
2023/01/20 07:49:10;;;;;;;20.48;1.92;;;;;;;;;;5065843;28;20024;-73
2023/01/20 07:51:36;;;;;;;2.72;1.73;;;;;;;;;;5063471;28;20049;-73
2023/01/20 07:54:03;;;;;;;1.80;1.60;;;;;;;;;;5065074;28;20436;-74
2023/01/20 07:56:29;;;;;;;2.75;1.88;;;;;;;;;;5066435;28;20028;-74
2023/01/20 07:58:55;;;;;;;2.30;1.60;;;;;;;;;;5058180;28;20496;-79
2023/01/20 08:01:23;;;;;;;7.07;1.90;;;;;;;;;;5055597;28;20558;-75
2023/01/20 08:03:49;;;;;;;3.17;1.60;;;;;;;;;;5061034;28;20040;-77
2023/01/20 08:06:16;;;;;;;4.55;1.90;;;;;;;;;;5047415;28;20374;-76
2023/01/20 08:08:48;;;;;;;3.47;1.92;;;;;;;;;;5063955;28;20050;-72
2023/01/20 08:11:15;;;;;;;3.17;1.95;;;;;;;;;;5048651;28;20037;-74
2023/01/20 08:13:42;;;;;;;3.50;1.90;;;;;;;;;;5051067;28;20025;-74
2023/01/20 08:16:09;;;;;;;4.90;3.00;;;;;;;;;;5059900;28;20027;-74
2023/01/20 08:18:35;;;;;;;3.15;2.00;;;;;;;;;;5055911;28;20029;-73
2023/01/20 08:21:05;;;;;;;5.40;2.00;;;;;;;;;;5049016;28;20040;-73
2023/01/20 08:23:31;;;;;;;6.00;2.15;;;;;;;;;;5050943;28;20471;-74
2023/01/20 08:25:58;;;;;;;6.35;2.60;;;;;;;;;;5060148;28;20024;-74
2023/01/20 08:28:25;;;;;;;3.38;2.15;;;;;;;;;;5064607;28;20020;-73
2023/01/20 08:30:51;;;;;;;3.08;2.05;;;;;;;;;;5068586;28;20027;-74
2023/01/20 08:33:17;;;;;;;4.35;2.42;;;;;;;;;;5059718;28;20363;-74
2023/01/20 08:35:43;;;;;;;5.75;2.63;;;;;;;;;;5059290;28;20671;-74
2023/01/20 08:38:09;;;;;;;3.75;2.30;;;;;;;;;;5064540;28;20120;-73
2023/01/20 08:40:35;;;;;;;4.00;2.10;;;;;;;;;;5087099;28;20103;-72
2023/01/20 08:43:01;;;;;;;4.20;2.67;;;;;;;;;;5059050;28;20017;-73
2023/01/20 08:45:27;;;;;;;5.45;2.67;;;;;;;;;;5051185;28;20032;-72
2023/01/20 08:47:53;;;;;;;5.75;2.42;;;;;;;;;;5048152;28;20024;-73
2023/01/20 08:50:22;;;;;;;3.40;1.90;;;;;;;;;;5048473;28;20504;-73
2023/01/20 08:52:48;;;;;;;7.25;2.90;;;;;;;;;;5064268;28;20748;-72
2023/01/20 08:55:14;;;;;;;2.22;1.85;;;;;;;;;;5068311;28;20078;-74
2023/01/20 08:57:40;;;;;;;2.80;1.90;;;;;;;;;;5050026;28;20040;-73
2023/01/20 09:00:08;;;;;;;3.67;2.13;;;;;;;;;;5049710;28;20048;-73
2023/01/20 09:02:33;;;;;;;4.65;2.20;;;;;;;;;;5047897;28;20485;-73
2023/01/20 09:04:59;;;;;;;3.75;2.00;;;;;;;;;;5047458;28;20021;-73
2023/01/20 09:07:26;;;;;;;4.63;2.40;;;;;;;;;;5061010;28;20025;-73
2023/01/20 09:09:52;;;;;;;4.07;2.17;;;;;;;;;;5056362;28;20542;-73
2023/01/20 09:12:17;;;;;;;2.97;2.35;;;;;;;;;;5054313;28;20127;-73
2023/01/20 09:14:43;;;;;;;3.63;2.05;;;;;;;;;;5051748;28;20028;-74
2023/01/20 09:17:09;;;;;;;3.90;2.60;;;;;;;;;;5052085;28;20017;-74
2023/01/20 09:19:35;;;;;;;4.43;2.97;;;;;;;;;;5052166;28;20021;-71
2023/01/20 09:22:02;;;;;;;4.50;2.38;;;;;;;;;;5050700;28;20032;-74
2023/01/20 09:24:28;;;;;;;6.75;2.92;;;;;;;;;;5054377;28;20226;-75
2023/01/20 09:26:55;;;;;;;5.20;2.75;;;;;;;;;;5047412;28;20033;-75
2023/01/20 09:29:21;;;;;;;6.45;3.05;;;;;;;;;;5047358;28;20025;-75
2023/01/20 09:31:57;;;;;;;4.18;2.35;;;;;;;;;;5051564;28;20060;-75
2023/01/20 09:34:24;;;;;;;5.72;2.72;;;;;;;;;;5050913;28;20020;-74
2023/01/20 09:36:54;;;;;;;6.65;2.30;;;;;;;;;;5050494;28;20033;-74
2023/01/20 09:45:24;;;;;;;3.42;2.17;;;;;;;;;;5025244;28;20037;-75
2023/01/20 09:47:53;;;;;;;5.03;2.45;;;;;;;;;;5049779;28;20024;-74
2023/01/20 09:53:34;;;;;;;4.75;2.03;;;;;;;;;;5048881;28;20079;-74
2023/01/20 09:56:02;;;;;;;3.85;2.50;;;;;;;;;;5047523;28;20052;-74
2023/01/20 09:58:40;;;;;;;4.32;2.72;;;;;;;;;;5047924;28;20024;-74
2023/01/20 10:01:09;;;;;;;3.28;2.55;;;;;;;;;;5045074;28;20033;-73
2023/01/20 10:03:36;;;;;;;5.22;2.65;;;;;;;;;;5049441;28;20027;-74
2023/01/20 10:06:06;;;;;;;5.35;2.75;;;;;;;;;;5046835;28;20027;-74
2023/01/20 10:08:35;;;;;;;3.70;2.30;;;;;;;;;;5046132;28;20074;-73
2023/01/20 10:11:09;;;;;;;3.72;2.35;;;;;;;;;;5061573;28;20115;-74
2023/01/20 10:13:50;;;;;;;4.07;2.63;;;;;;;;;;5046969;28;20035;-74
2023/01/20 10:16:20;;;;;;;6.47;2.92;;;;;;;;;;5053823;28;20388;-74
2023/01/20 10:18:49;;;;;;;3.57;2.30;;;;;;;;;;5046454;28;20025;-74
2023/01/20 10:21:20;;;;;;;3.10;2.25;;;;;;;;;;5047072;28;20254;-74
2023/01/20 10:23:51;;;;;;;4.53;2.75;;;;;;;;;;5057566;28;20037;-74
2023/01/20 10:26:17;;;;;;;;;;;;;;;;;;5066705;28;20086;-74
2023/01/20 10:28:46;;;;;;;3.67;2.35;;;;;;;;;;5066502;28;20622;-74
2023/01/20 10:31:15;;;;;;;3.55;2.03;;;;;;;;;;5066530;28;20116;-74
2023/01/20 10:33:43;;;;;;;6.63;2.53;;;;;;;;;;5062110;28;20051;-74
2023/01/20 10:36:24;;;;;;;4.40;2.63;;;;;;;;;;5066175;28;20059;-73
2023/01/20 10:38:59;;;;;;;3.58;2.20;;;;;;;;;;5066539;28;20025;-74
2023/01/20 10:41:28;;;;;;;5.15;2.30;;;;;;;;;;5066422;28;20028;-74
2023/01/20 10:43:55;;;;;;;3.17;2.17;;;;;;;;;;5060689;28;20031;-74
2023/01/20 10:46:30;;;;;;;4.20;2.45;;;;;;;;;;5065347;28;20436;-74
2023/01/20 10:49:02;;;;;;;3.22;2.15;;;;;;;;;;5066291;28;20032;-74
2023/01/20 10:51:37;;;;;;;4.60;2.55;;;;;;;;;;5057627;28;20858;-73
2023/01/20 10:54:11;;;;;;;2.78;1.88;;;;;;;;;;5048395;28;20029;-73
2023/01/20 10:56:42;;;;;;;6.43;3.10;;;;;;;;;;5046214;28;20037;-73
2023/01/20 10:59:20;;;;;;;7.97;2.77;;;;;;;;;;5049548;28;20477;-73
2023/01/20 11:01:48;;;;;;;3.15;1.90;;;;;;;;;;5053317;28;20036;-73
2023/01/20 11:04:18;;;;;;;3.00;1.95;;;;;;;;;;5066079;28;20553;-74
2023/01/20 11:06:45;;;;;;;3.67;2.10;;;;;;;;;;5066038;28;20802;-74
2023/01/20 11:09:19;;;;;;;3.15;2.22;;;;;;;;;;5060191;28;20017;-74
2023/01/20 11:11:45;;;;;;;4.13;2.42;;;;;;;;;;5065711;28;20037;-73
2023/01/20 11:14:11;;;;;;;6.28;2.13;;;;;;;;;;5065978;28;20031;-73
2023/01/20 11:16:39;;;;;;;2.65;2.33;;;;;;;;;;5050968;28;20087;-74
2023/01/20 11:19:06;;;;;;;4.47;2.30;;;;;;;;;;5048705;28;20737;-74
2023/01/20 11:21:35;;;;;;;6.63;2.45;;;;;;;;;;5058052;28;20029;-74
2023/01/20 11:24:01;;;;;;;3.25;2.10;;;;;;;;;;5066065;28;20411;-74
2023/01/20 11:26:32;;;;;;;3.15;2.00;;;;;;;;;;5065998;28;20276;-74
2023/01/20 11:29:02;;;;;;;2.10;1.70;;;;;;;;;;5066010;28;20025;-74
2023/01/20 11:31:49;;;;;;;2.90;2.13;;;;;;;;;;5060607;28;20574;-74
2023/01/20 11:34:31;;;;;;;2.55;1.88;;;;;;;;;;5045988;28;20049;-74
2023/01/20 11:37:06;;;;;;;3.35;2.50;;;;;;;;;;5045800;28;20025;-74
2023/01/20 11:39:41;;;;;;;3.58;1.98;;;;;;;;;;5047792;28;20477;-74
2023/01/20 11:42:13;;;;;;;3.50;2.10;;;;;;;;;;5049052;28;20553;-73
2023/01/20 11:44:43;;;;;;;2.55;1.80;;;;;;;;;;5069273;28;20025;-74
2023/01/20 11:47:22;;;;;;;3.15;1.77;;;;;;;;;;5069403;28;20448;-73
2023/01/20 11:50:08;;;;;;;2.88;1.83;;;;;;;;;;5069263;28;20027;-74
2023/01/20 11:52:35;;;;;;;3.50;1.92;;;;;;;;;;5066720;28;20067;-73
2023/01/20 11:55:26;;;;;;;3.38;2.03;;;;;;;;;;5065812;28;20093;-74
2023/01/20 11:57:54;;;;;;;3.03;1.90;;;;;;;;;;5069580;28;20712;-72
2023/01/20 12:00:20;;;;;;;2.42;1.73;;;;;;;;;;5069808;28;20032;-73
2023/01/20 12:02:56;;;;;;;3.33;1.83;;;;;;;;;;5061056;28;20108;-73
2023/01/20 12:05:26;;;;;;;3.08;1.73;;;;;;;;;;5063683;28;20080;-72
2023/01/20 12:07:52;;;;;;;3.60;2.22;;;;;;;;;;5069203;28;20032;-73
2023/01/20 12:10:21;;;;;;;2.80;2.03;;;;;;;;;;5069279;28;20558;-74
2023/01/20 12:13:07;;;;;;;3.65;2.10;;;;;;;;;;5068492;28;20068;-75
2023/01/20 12:15:34;;;;;;;2.40;1.90;;;;;;;;;;5052266;28;20495;-74
2023/01/20 12:18:04;;;;;;;3.58;2.05;;;;;;;;;;5068705;28;20021;-73
2023/01/20 12:20:35;;;;;;;3.95;2.30;;;;;;;;;;5068741;28;20024;-74
2023/01/20 12:23:11;;;;;;;4.78;2.15;;;;;;;;;;5068854;28;20447;-73
2023/01/20 12:25:42;;;;;;;3.72;2.15;;;;;;;;;;5053236;28;20034;-73
2023/01/20 12:28:18;;;;;;;4.05;1.95;;;;;;;;;;5049030;28;20051;-72
2023/01/20 12:30:47;;;;;;;4.78;2.33;;;;;;;;;;5048521;28;20112;-73
2023/01/20 12:33:21;;;;;;;4.78;2.20;;;;;;;;;;5048557;28;20120;-73
2023/01/20 12:36:00;;;;;;;3.17;2.13;;;;;;;;;;5057296;28;20055;-74
2023/01/20 12:38:28;;;;;;;2.55;2.05;;;;;;;;;;5068274;28;20055;-73
2023/01/20 12:40:54;;;;;;;3.20;1.90;;;;;;;;;;5068523;28;20451;-73
2023/01/20 12:43:39;;;;;;;4.35;2.25;;;;;;;;;;5066413;28;20135;-73
2023/01/20 12:46:26;;;;;;;2.78;1.90;;;;;;;;;;5055187;28;20068;-73
2023/01/20 12:48:59;;;;;;;3.30;1.90;;;;;;;;;;5068639;28;20043;-74
2023/01/20 12:51:48;;;;;;;3.97;2.17;;;;;;;;;;5067841;28;20488;-74
2023/01/20 12:54:22;;;;;;;3.67;1.92;;;;;;;;;;5064490;28;20214;-74
2023/01/20 12:56:48;;;;;;;3.72;2.33;;;;;;;;;;5060792;28;20115;-73
2023/01/20 12:59:27;;;;;;;3.60;2.13;;;;;;;;;;5067991;28;20163;-74
2023/01/20 13:02:14;;;;;;;2.63;1.92;;;;;;;;;;5068224;28;20025;-74
2023/01/20 13:04:45;;;;;;;3.00;1.80;;;;;;;;;;5065445;28;20038;-73
2023/01/20 13:07:26;;;;;;;6.93;2.42;;;;;;;;;;5051889;28;20036;-74
2023/01/20 13:09:58;;;;;;;3.50;2.00;;;;;;;;;;5068166;28;20116;-74
2023/01/20 13:12:36;;;;;;;4.05;2.50;;;;;;;;;;5064644;28;20127;-74
2023/01/20 13:15:12;;;;;;;3.83;2.20;;;;;;;;;;5055327;28;20036;-74
2023/01/20 13:17:42;;;;;;;3.72;1.85;;;;;;;;;;5048084;28;20029;-74
2023/01/20 13:20:15;;;;;;;5.32;1.48;;;;;;;;;;5048158;28;20029;-73
2023/01/20 13:22:41;;;;;;;3.42;2.10;;;;;;;;;;5047073;28;20103;-74
2023/01/20 13:25:13;;;;;;;3.30;2.00;;;;;;;;;;5059868;28;20544;-74
2023/01/20 13:27:39;;;;;;;2.72;1.95;;;;;;;;;;5067472;28;20483;-74
2023/01/20 13:30:06;;;;;;;3.50;2.45;;;;;;;;;;5067712;28;20103;-74
2023/01/20 13:32:34;;;;;;;3.22;2.13;;;;;;;;;;5067251;28;20024;-74
2023/01/20 13:35:01;;;;;;;2.63;1.90;;;;;;;;;;5051339;28;20108;-74
2023/01/20 13:37:37;;;;;;;3.30;1.98;;;;;;;;;;5045813;28;20036;-74
2023/01/20 13:40:05;;;;;;;2.50;1.95;;;;;;;;;;5047198;28;20045;-74
2023/01/20 13:42:31;;;;;;;3.88;2.40;;;;;;;;;;5047244;28;20029;-74
2023/01/20 13:45:14;;;;;;;2.15;1.80;;;;;;;;;;5047821;28;20178;-74
2023/01/20 13:47:56;;;;;;;3.08;1.92;;;;;;;;;;5047209;28;20047;-74
2023/01/20 13:50:22;;;;;;;5.20;2.28;;;;;;;;;;5047554;28;20024;-73
2023/01/20 13:52:51;;;;;;;2.53;1.92;;;;;;;;;;5046692;28;20142;-74
2023/01/20 13:55:30;;;;;;;4.05;2.00;;;;;;;;;;5050176;28;20024;-74
2023/01/20 13:57:56;;;;;;;3.13;1.80;;;;;;;;;;5066973;28;20077;-74
2023/01/20 14:00:22;;;;;;;3.53;2.10;;;;;;;;;;5067258;28;20021;-74
2023/01/20 14:02:49;;;;;;;4.45;2.35;;;;;;;;;;5065950;28;20031;-73
2023/01/20 14:05:19;;;;;;;2.92;2.10;;;;;;;;;;5064871;28;20020;-73
2023/01/20 14:07:45;;;;;;;2.65;2.03;;;;;;;;;;5065125;28;20024;-74
2023/01/20 14:10:12;;;;;;;3.97;2.10;;;;;;;;;;5058420;28;20020;-75
2023/01/20 14:12:41;;;;;;;2.53;2.00;;;;;;;;;;5046860;28;20405;-74
2023/01/20 14:15:21;;;;;;;3.58;1.90;;;;;;;;;;5053800;28;20032;-75
2023/01/20 14:17:57;;;;;;;5.57;2.28;;;;;;;;;;5046549;28;20025;-74
2023/01/20 14:20:24;;;;;;;2.45;1.90;;;;;;;;;;5047095;28;20028;-73
2023/01/20 14:22:50;;;;;;;4.43;2.20;;;;;;;;;;5048041;28;20082;-74
2023/01/20 14:25:20;;;;;;;3.10;2.17;;;;;;;;;;5046622;28;20060;-74
2023/01/20 14:27:46;;;;;;;1.95;1.77;;;;;;;;;;5046291;28;20078;-74
2023/01/20 14:30:19;;;;;;;2.60;1.80;;;;;;;;;;5046712;28;20029;-74
2023/01/20 14:32:45;;;;;;;4.57;2.13;;;;;;;;;;5047449;28;20013;-74
2023/01/20 14:35:31;;;;;;;3.15;2.00;;;;;;;;;;5051580;28;20028;-73
2023/01/20 14:37:58;;;;;;;4.38;2.13;;;;;;;;;;5050731;28;20048;-74
2023/01/20 14:40:29;;;;;;;3.33;2.05;;;;;;;;;;5046773;28;20074;-73
2023/01/20 14:42:59;;;;;;;2.92;2.05;;;;;;;;;;5053914;28;20579;-74
2023/01/20 14:45:27;;;;;;;3.72;2.13;;;;;;;;;;5059436;28;20028;-74
2023/01/20 14:47:53;;;;;;;3.03;2.00;;;;;;;;;;5054062;28;20028;-74
2023/01/20 14:50:20;;;;;;;3.45;2.08;;;;;;;;;;5050858;28;20104;-73
2023/01/20 14:52:46;;;;;;;4.65;1.73;;;;;;;;;;5065750;28;20633;-74
2023/01/20 14:55:30;;;;;;;4.65;2.22;;;;;;;;;;5066484;28;20024;-74
2023/01/20 14:57:56;;;;;;;3.90;2.25;;;;;;;;;;5069236;28;20081;-73
2023/01/20 15:00:29;;;;;;;5.57;2.05;;;;;;;;;;5056751;28;20033;-73
2023/01/20 15:03:04;;;;;;;3.85;2.22;;;;;;;;;;5056709;28;20021;-73